sensor_id;sensor_type;location;lat;lon;timestamp;temperature;humidity
23137;DHT22;11737;50.558;7.258;2022-10-16T00:01:31;14.30;99.90
23137;DHT22;11737;50.558;7.258;2022-10-16T00:04:00;14.30;99.90
23137;DHT22;11737;50.558;7.258;2022-10-16T00:06:28;14.30;99.90
23137;DHT22;11737;50.558;7.258;2022-10-16T00:08:57;14.30;99.90
23137;DHT22;11737;50.558;7.258;2022-10-16T00:11:30;14.20;99.90
23137;DHT22;11737;50.558;7.258;2022-10-16T00:13:57;14.20;99.90
23137;DHT22;11737;50.558;7.258;2022-10-16T00:16:26;14.30;99.90
23137;DHT22;11737;50.558;7.258;2022-10-16T00:18:54;14.40;99.90
23137;DHT22;11737;50.558;7.258;2022-10-16T00:21:27;14.50;99.90
23137;DHT22;11737;50.558;7.258;2022-10-16T00:24:01;14.50;99.90
23137;DHT22;11737;50.558;7.258;2022-10-16T00:26:31;14.40;99.90
23137;DHT22;11737;50.558;7.258;2022-10-16T00:28:59;14.30;99.90
23137;DHT22;11737;50.558;7.258;2022-10-16T00:31:27;14.30;99.90
23137;DHT22;11737;50.558;7.258;2022-10-16T00:33:56;14.20;99.90
23137;DHT22;11737;50.558;7.258;2022-10-16T00:36:25;14.20;99.90
23137;DHT22;11737;50.558;7.258;2022-10-16T00:38:54;14.20;99.90
23137;DHT22;11737;50.558;7.258;2022-10-16T00:41:24;14.20;99.90
23137;DHT22;11737;50.558;7.258;2022-10-16T00:43:54;14.10;99.90
23137;DHT22;11737;50.558;7.258;2022-10-16T00:46:25;14.00;99.90
23137;DHT22;11737;50.558;7.258;2022-10-16T00:49:00;13.90;99.90
23137;DHT22;11737;50.558;7.258;2022-10-16T00:51:36;13.90;99.90
23137;DHT22;11737;50.558;7.258;2022-10-16T00:53:58;13.90;99.90
23137;DHT22;11737;50.558;7.258;2022-10-16T00:56:26;14.00;99.90
23137;DHT22;11737;50.558;7.258;2022-10-16T00:58:53;14.00;99.90
23137;DHT22;11737;50.558;7.258;2022-10-16T01:01:21;13.90;99.90
23137;DHT22;11737;50.558;7.258;2022-10-16T01:03:49;14.00;99.90
23137;DHT22;11737;50.558;7.258;2022-10-16T01:09:21;14.00;99.90
23137;DHT22;11737;50.558;7.258;2022-10-16T01:11:54;13.90;99.90
23137;DHT22;11737;50.558;7.258;2022-10-16T01:17:12;13.80;99.90
23137;DHT22;11737;50.558;7.258;2022-10-16T01:20:08;13.70;99.90
23137;DHT22;11737;50.558;7.258;2022-10-16T01:25:20;13.80;99.90
23137;DHT22;11737;50.558;7.258;2022-10-16T01:27:47;13.90;99.90
23137;DHT22;11737;50.558;7.258;2022-10-16T01:30:18;13.80;99.90
23137;DHT22;11737;50.558;7.258;2022-10-16T01:32:57;13.80;99.90
23137;DHT22;11737;50.558;7.258;2022-10-16T01:35:32;13.80;99.90
23137;DHT22;11737;50.558;7.258;2022-10-16T01:38:04;13.70;99.90
23137;DHT22;11737;50.558;7.258;2022-10-16T01:40:34;13.70;99.90
23137;DHT22;11737;50.558;7.258;2022-10-16T01:45:52;13.70;99.90
23137;DHT22;11737;50.558;7.258;2022-10-16T01:48:21;13.60;99.90
23137;DHT22;11737;50.558;7.258;2022-10-16T01:51:05;13.60;99.90
23137;DHT22;11737;50.558;7.258;2022-10-16T01:53:33;13.50;99.90
23137;DHT22;11737;50.558;7.258;2022-10-16T01:56:03;13.60;99.90
23137;DHT22;11737;50.558;7.258;2022-10-16T01:58:34;13.60;99.90
23137;DHT22;11737;50.558;7.258;2022-10-16T02:01:03;13.70;99.90
23137;DHT22;11737;50.558;7.258;2022-10-16T02:03:32;13.70;99.90
23137;DHT22;11737;50.558;7.258;2022-10-16T02:06:01;13.70;99.90
23137;DHT22;11737;50.558;7.258;2022-10-16T02:08:30;13.70;99.90
23137;DHT22;11737;50.558;7.258;2022-10-16T02:10:59;13.70;99.90
23137;DHT22;11737;50.558;7.258;2022-10-16T02:16:12;13.70;99.90
23137;DHT22;11737;50.558;7.258;2022-10-16T02:18:41;13.60;99.90
23137;DHT22;11737;50.558;7.258;2022-10-16T02:21:18;13.60;99.90
23137;DHT22;11737;50.558;7.258;2022-10-16T02:24:14;13.50;99.90
23137;DHT22;11737;50.558;7.258;2022-10-16T02:29:16;13.70;99.90
23137;DHT22;11737;50.558;7.258;2022-10-16T02:31:48;13.80;99.90
23137;DHT22;11737;50.558;7.258;2022-10-16T02:34:16;13.80;99.90
23137;DHT22;11737;50.558;7.258;2022-10-16T02:36:46;13.90;99.90
23137;DHT22;11737;50.558;7.258;2022-10-16T02:39:16;13.90;99.90
23137;DHT22;11737;50.558;7.258;2022-10-16T02:41:44;13.90;99.90
23137;DHT22;11737;50.558;7.258;2022-10-16T02:44:11;13.90;99.90
23137;DHT22;11737;50.558;7.258;2022-10-16T02:46:39;14.00;99.90
23137;DHT22;11737;50.558;7.258;2022-10-16T02:49:06;14.00;99.90
23137;DHT22;11737;50.558;7.258;2022-10-16T02:51:34;13.90;99.90
23137;DHT22;11737;50.558;7.258;2022-10-16T02:54:02;14.00;99.90
23137;DHT22;11737;50.558;7.258;2022-10-16T02:56:30;13.90;99.90
23137;DHT22;11737;50.558;7.258;2022-10-16T02:58:57;14.00;99.90
23137;DHT22;11737;50.558;7.258;2022-10-16T03:01:25;14.00;99.90
23137;DHT22;11737;50.558;7.258;2022-10-16T03:03:53;14.10;99.90
23137;DHT22;11737;50.558;7.258;2022-10-16T03:06:20;14.10;99.90
23137;DHT22;11737;50.558;7.258;2022-10-16T03:08:48;14.20;99.90
23137;DHT22;11737;50.558;7.258;2022-10-16T03:11:15;14.20;99.90
23137;DHT22;11737;50.558;7.258;2022-10-16T03:13:43;14.10;99.90
23137;DHT22;11737;50.558;7.258;2022-10-16T03:16:10;14.20;99.90
23137;DHT22;11737;50.558;7.258;2022-10-16T03:18:38;14.20;99.90
23137;DHT22;11737;50.558;7.258;2022-10-16T03:21:05;14.20;99.90
23137;DHT22;11737;50.558;7.258;2022-10-16T03:23:33;14.20;99.90
23137;DHT22;11737;50.558;7.258;2022-10-16T03:26:00;14.30;99.90
23137;DHT22;11737;50.558;7.258;2022-10-16T03:28:28;14.40;99.90
23137;DHT22;11737;50.558;7.258;2022-10-16T03:30:55;14.50;99.90
23137;DHT22;11737;50.558;7.258;2022-10-16T03:33:22;14.60;99.90
23137;DHT22;11737;50.558;7.258;2022-10-16T03:35:54;14.60;99.90
23137;DHT22;11737;50.558;7.258;2022-10-16T03:38:22;14.60;99.90
23137;DHT22;11737;50.558;7.258;2022-10-16T03:40:49;14.70;99.90
23137;DHT22;11737;50.558;7.258;2022-10-16T03:43:17;14.70;99.90
23137;DHT22;11737;50.558;7.258;2022-10-16T03:45:44;14.80;99.90
23137;DHT22;11737;50.558;7.258;2022-10-16T03:48:12;14.80;99.90
23137;DHT22;11737;50.558;7.258;2022-10-16T03:50:39;14.80;99.90
23137;DHT22;11737;50.558;7.258;2022-10-16T03:53:07;14.90;99.90
23137;DHT22;11737;50.558;7.258;2022-10-16T03:55:35;14.90;99.90
23137;DHT22;11737;50.558;7.258;2022-10-16T03:58:02;14.90;99.90
23137;DHT22;11737;50.558;7.258;2022-10-16T04:00:30;14.90;99.90
23137;DHT22;11737;50.558;7.258;2022-10-16T04:02:57;15.00;99.90
23137;DHT22;11737;50.558;7.258;2022-10-16T04:05:25;15.00;99.90
23137;DHT22;11737;50.558;7.258;2022-10-16T04:07:53;15.10;99.90
23137;DHT22;11737;50.558;7.258;2022-10-16T04:10:21;15.20;99.90
23137;DHT22;11737;50.558;7.258;2022-10-16T04:12:49;15.20;99.90
23137;DHT22;11737;50.558;7.258;2022-10-16T04:15:16;15.20;99.90
23137;DHT22;11737;50.558;7.258;2022-10-16T04:17:44;15.20;99.90
23137;DHT22;11737;50.558;7.258;2022-10-16T04:20:11;15.20;99.90
23137;DHT22;11737;50.558;7.258;2022-10-16T04:22:39;15.30;99.90
23137;DHT22;11737;50.558;7.258;2022-10-16T04:25:07;15.30;99.90
23137;DHT22;11737;50.558;7.258;2022-10-16T04:27:34;15.30;99.90
23137;DHT22;11737;50.558;7.258;2022-10-16T04:30:02;15.30;99.90
23137;DHT22;11737;50.558;7.258;2022-10-16T04:32:30;15.30;99.90
23137;DHT22;11737;50.558;7.258;2022-10-16T04:34:57;15.40;99.90
23137;DHT22;11737;50.558;7.258;2022-10-16T04:37:26;15.40;99.90
23137;DHT22;11737;50.558;7.258;2022-10-16T04:39:54;15.40;99.90
23137;DHT22;11737;50.558;7.258;2022-10-16T04:42:21;15.40;99.90
23137;DHT22;11737;50.558;7.258;2022-10-16T04:44:49;15.40;99.90
23137;DHT22;11737;50.558;7.258;2022-10-16T04:47:16;15.40;99.90
23137;DHT22;11737;50.558;7.258;2022-10-16T04:49:44;15.40;99.90
23137;DHT22;11737;50.558;7.258;2022-10-16T04:52:11;15.40;99.90
23137;DHT22;11737;50.558;7.258;2022-10-16T04:54:39;15.40;99.90
23137;DHT22;11737;50.558;7.258;2022-10-16T04:57:06;15.30;99.90
23137;DHT22;11737;50.558;7.258;2022-10-16T04:59:34;15.30;99.90
23137;DHT22;11737;50.558;7.258;2022-10-16T05:02:01;15.30;99.90
23137;DHT22;11737;50.558;7.258;2022-10-16T05:04:29;15.30;99.90
23137;DHT22;11737;50.558;7.258;2022-10-16T05:06:56;15.30;99.90
23137;DHT22;11737;50.558;7.258;2022-10-16T05:09:24;15.30;99.90
23137;DHT22;11737;50.558;7.258;2022-10-16T05:11:51;15.40;99.90
23137;DHT22;11737;50.558;7.258;2022-10-16T05:14:19;15.30;99.90
23137;DHT22;11737;50.558;7.258;2022-10-16T05:16:46;15.40;99.90
23137;DHT22;11737;50.558;7.258;2022-10-16T05:19:14;15.40;99.90
23137;DHT22;11737;50.558;7.258;2022-10-16T05:21:42;15.40;99.90
23137;DHT22;11737;50.558;7.258;2022-10-16T05:24:09;15.50;99.90
23137;DHT22;11737;50.558;7.258;2022-10-16T05:26:37;15.50;99.90
23137;DHT22;11737;50.558;7.258;2022-10-16T05:29:04;15.50;99.90
23137;DHT22;11737;50.558;7.258;2022-10-16T05:31:32;15.50;99.90
23137;DHT22;11737;50.558;7.258;2022-10-16T05:34:00;15.50;99.90
23137;DHT22;11737;50.558;7.258;2022-10-16T05:36:27;15.50;99.90
23137;DHT22;11737;50.558;7.258;2022-10-16T05:38:55;15.50;99.90
23137;DHT22;11737;50.558;7.258;2022-10-16T05:41:22;15.60;99.90
23137;DHT22;11737;50.558;7.258;2022-10-16T05:43:52;15.60;99.90
23137;DHT22;11737;50.558;7.258;2022-10-16T05:46:21;15.60;99.90
23137;DHT22;11737;50.558;7.258;2022-10-16T05:48:51;15.60;99.90
23137;DHT22;11737;50.558;7.258;2022-10-16T05:51:17;15.60;99.90
23137;DHT22;11737;50.558;7.258;2022-10-16T05:53:45;15.60;99.90
23137;DHT22;11737;50.558;7.258;2022-10-16T05:56:12;15.60;99.90
23137;DHT22;11737;50.558;7.258;2022-10-16T05:58:40;15.70;99.90
23137;DHT22;11737;50.558;7.258;2022-10-16T06:01:10;15.70;99.90
23137;DHT22;11737;50.558;7.258;2022-10-16T06:03:38;15.70;99.90
23137;DHT22;11737;50.558;7.258;2022-10-16T06:06:18;15.60;99.90
23137;DHT22;11737;50.558;7.258;2022-10-16T06:08:47;15.70;99.90
23137;DHT22;11737;50.558;7.258;2022-10-16T06:11:22;15.70;99.90
23137;DHT22;11737;50.558;7.258;2022-10-16T06:13:50;15.60;99.90
23137;DHT22;11737;50.558;7.258;2022-10-16T06:16:18;15.60;99.90
23137;DHT22;11737;50.558;7.258;2022-10-16T06:18:46;15.70;99.90
23137;DHT22;11737;50.558;7.258;2022-10-16T06:21:20;15.70;99.90
23137;DHT22;11737;50.558;7.258;2022-10-16T06:23:48;15.70;99.90
23137;DHT22;11737;50.558;7.258;2022-10-16T06:26:19;15.60;99.90
23137;DHT22;11737;50.558;7.258;2022-10-16T06:28:47;15.70;99.90
23137;DHT22;11737;50.558;7.258;2022-10-16T06:31:16;15.70;99.90
23137;DHT22;11737;50.558;7.258;2022-10-16T06:33:44;15.70;99.90
23137;DHT22;11737;50.558;7.258;2022-10-16T06:36:15;15.70;99.90
23137;DHT22;11737;50.558;7.258;2022-10-16T06:38:43;15.70;99.90
23137;DHT22;11737;50.558;7.258;2022-10-16T06:41:20;15.80;99.90
23137;DHT22;11737;50.558;7.258;2022-10-16T06:43:48;15.80;99.90
23137;DHT22;11737;50.558;7.258;2022-10-16T06:46:18;15.80;99.90
23137;DHT22;11737;50.558;7.258;2022-10-16T06:48:47;15.90;99.90
23137;DHT22;11737;50.558;7.258;2022-10-16T06:51:17;15.90;99.90
23137;DHT22;11737;50.558;7.258;2022-10-16T06:53:47;16.00;99.90
23137;DHT22;11737;50.558;7.258;2022-10-16T06:56:23;16.00;99.90
23137;DHT22;11737;50.558;7.258;2022-10-16T06:58:48;16.10;99.90
23137;DHT22;11737;50.558;7.258;2022-10-16T07:01:17;16.10;99.90
23137;DHT22;11737;50.558;7.258;2022-10-16T07:03:46;16.10;99.90
23137;DHT22;11737;50.558;7.258;2022-10-16T07:06:16;16.20;99.90
23137;DHT22;11737;50.558;7.258;2022-10-16T07:08:45;16.20;99.90
23137;DHT22;11737;50.558;7.258;2022-10-16T07:14:03;16.10;99.90
23137;DHT22;11737;50.558;7.258;2022-10-16T07:16:32;16.00;99.90
23137;DHT22;11737;50.558;7.258;2022-10-16T07:19:01;16.00;99.90
23137;DHT22;11737;50.558;7.258;2022-10-16T07:21:31;16.00;99.90
23137;DHT22;11737;50.558;7.258;2022-10-16T07:24:01;16.10;99.90
23137;DHT22;11737;50.558;7.258;2022-10-16T07:26:31;16.10;99.90
23137;DHT22;11737;50.558;7.258;2022-10-16T07:28:59;16.10;99.90
23137;DHT22;11737;50.558;7.258;2022-10-16T07:31:27;16.20;99.90
23137;DHT22;11737;50.558;7.258;2022-10-16T07:33:55;16.30;99.90
23137;DHT22;11737;50.558;7.258;2022-10-16T07:36:24;16.40;99.90
23137;DHT22;11737;50.558;7.258;2022-10-16T07:38:51;16.50;99.90
23137;DHT22;11737;50.558;7.258;2022-10-16T07:41:20;16.60;99.90
23137;DHT22;11737;50.558;7.258;2022-10-16T07:43:49;16.60;99.90
23137;DHT22;11737;50.558;7.258;2022-10-16T07:46:18;16.70;99.90
23137;DHT22;11737;50.558;7.258;2022-10-16T07:48:45;16.80;99.90
23137;DHT22;11737;50.558;7.258;2022-10-16T07:51:16;16.90;99.90
23137;DHT22;11737;50.558;7.258;2022-10-16T07:53:44;16.90;99.90
23137;DHT22;11737;50.558;7.258;2022-10-16T07:56:12;17.00;99.90
23137;DHT22;11737;50.558;7.258;2022-10-16T07:58:40;17.10;99.90
23137;DHT22;11737;50.558;7.258;2022-10-16T08:01:10;17.20;99.90
23137;DHT22;11737;50.558;7.258;2022-10-16T08:03:46;17.30;99.90
23137;DHT22;11737;50.558;7.258;2022-10-16T08:06:10;17.40;99.90
23137;DHT22;11737;50.558;7.258;2022-10-16T08:08:38;17.50;99.90
23137;DHT22;11737;50.558;7.258;2022-10-16T08:11:05;17.60;99.90
23137;DHT22;11737;50.558;7.258;2022-10-16T08:13:33;17.60;99.90
23137;DHT22;11737;50.558;7.258;2022-10-16T08:16:01;17.70;99.90
23137;DHT22;11737;50.558;7.258;2022-10-16T08:18:30;17.70;99.90
23137;DHT22;11737;50.558;7.258;2022-10-16T08:20:59;17.70;99.90
23137;DHT22;11737;50.558;7.258;2022-10-16T08:23:27;17.80;99.90
23137;DHT22;11737;50.558;7.258;2022-10-16T08:25:56;17.80;99.90
23137;DHT22;11737;50.558;7.258;2022-10-16T08:28:25;17.70;99.90
23137;DHT22;11737;50.558;7.258;2022-10-16T08:30:52;17.70;99.90
23137;DHT22;11737;50.558;7.258;2022-10-16T08:33:20;17.80;99.90
23137;DHT22;11737;50.558;7.258;2022-10-16T08:38:39;17.90;99.90
23137;DHT22;11737;50.558;7.258;2022-10-16T08:49:30;17.90;99.90
23137;DHT22;11737;50.558;7.258;2022-10-16T08:51:58;18.00;99.90
23137;DHT22;11737;50.558;7.258;2022-10-16T08:54:41;18.00;99.90
23137;DHT22;11737;50.558;7.258;2022-10-16T08:57:16;18.10;99.90
23137;DHT22;11737;50.558;7.258;2022-10-16T08:59:44;18.30;99.90
23137;DHT22;11737;50.558;7.258;2022-10-16T09:02:32;18.40;99.90
23137;DHT22;11737;50.558;7.258;2022-10-16T09:08:01;18.80;99.90
23137;DHT22;11737;50.558;7.258;2022-10-16T09:10:33;18.90;99.90
23137;DHT22;11737;50.558;7.258;2022-10-16T09:13:09;19.00;99.90
23137;DHT22;11737;50.558;7.258;2022-10-16T09:15:43;19.20;99.90
23137;DHT22;11737;50.558;7.258;2022-10-16T09:21:23;19.30;99.90
23137;DHT22;11737;50.558;7.258;2022-10-16T09:23:51;19.40;99.90
23137;DHT22;11737;50.558;7.258;2022-10-16T09:26:19;19.50;99.90
23137;DHT22;11737;50.558;7.258;2022-10-16T09:28:48;19.60;99.90
23137;DHT22;11737;50.558;7.258;2022-10-16T09:31:18;19.70;99.90
23137;DHT22;11737;50.558;7.258;2022-10-16T09:33:50;19.80;99.90
23137;DHT22;11737;50.558;7.258;2022-10-16T09:36:17;20.00;99.90
23137;DHT22;11737;50.558;7.258;2022-10-16T09:38:45;20.00;99.90
23137;DHT22;11737;50.558;7.258;2022-10-16T09:41:18;20.30;99.90
23137;DHT22;11737;50.558;7.258;2022-10-16T09:43:49;20.50;99.90
23137;DHT22;11737;50.558;7.258;2022-10-16T09:46:22;20.60;99.90
23137;DHT22;11737;50.558;7.258;2022-10-16T09:48:51;20.60;99.90
23137;DHT22;11737;50.558;7.258;2022-10-16T09:51:32;20.70;99.90
23137;DHT22;11737;50.558;7.258;2022-10-16T09:54:34;20.70;99.90
23137;DHT22;11737;50.558;7.258;2022-10-16T09:56:26;20.70;99.90
23137;DHT22;11737;50.558;7.258;2022-10-16T09:58:57;20.70;99.90
23137;DHT22;11737;50.558;7.258;2022-10-16T10:01:39;20.70;99.90
23137;DHT22;11737;50.558;7.258;2022-10-16T10:04:07;20.60;99.90
23137;DHT22;11737;50.558;7.258;2022-10-16T10:06:46;20.60;99.90
23137;DHT22;11737;50.558;7.258;2022-10-16T10:14:34;20.60;99.90
23137;DHT22;11737;50.558;7.258;2022-10-16T10:17:09;20.70;99.90
23137;DHT22;11737;50.558;7.258;2022-10-16T10:19:44;20.70;99.90
23137;DHT22;11737;50.558;7.258;2022-10-16T10:22:43;20.70;99.90
23137;DHT22;11737;50.558;7.258;2022-10-16T10:36:11;20.40;99.90
23137;DHT22;11737;50.558;7.258;2022-10-16T10:38:46;20.50;99.90
23137;DHT22;11737;50.558;7.258;2022-10-16T10:44:16;20.60;99.90
23137;DHT22;11737;50.558;7.258;2022-10-16T10:47:12;20.60;99.90
23137;DHT22;11737;50.558;7.258;2022-10-16T10:49:49;20.70;99.90
23137;DHT22;11737;50.558;7.258;2022-10-16T10:52:39;20.70;99.90
23137;DHT22;11737;50.558;7.258;2022-10-16T11:03:27;21.10;99.90
23137;DHT22;11737;50.558;7.258;2022-10-16T11:06:22;21.00;99.90
23137;DHT22;11737;50.558;7.258;2022-10-16T11:09:23;20.90;99.90
23137;DHT22;11737;50.558;7.258;2022-10-16T11:14:18;20.70;99.90
23137;DHT22;11737;50.558;7.258;2022-10-16T11:17:08;20.70;99.90
23137;DHT22;11737;50.558;7.258;2022-10-16T11:19:50;20.60;99.90
23137;DHT22;11737;50.558;7.258;2022-10-16T11:22:35;20.60;99.90
23137;DHT22;11737;50.558;7.258;2022-10-16T11:27:56;20.40;99.90
23137;DHT22;11737;50.558;7.258;2022-10-16T11:30:29;20.40;99.90
23137;DHT22;11737;50.558;7.258;2022-10-16T11:36:16;20.30;99.90
23137;DHT22;11737;50.558;7.258;2022-10-16T11:39:00;20.40;99.90
23137;DHT22;11737;50.558;7.258;2022-10-16T11:41:35;20.50;99.90
23137;DHT22;11737;50.558;7.258;2022-10-16T11:47:12;21.00;99.90
23137;DHT22;11737;50.558;7.258;2022-10-16T11:49:38;21.10;99.90
23137;DHT22;11737;50.558;7.258;2022-10-16T11:52:23;21.20;99.90
23137;DHT22;11737;50.558;7.258;2022-10-16T11:54:55;21.40;99.90
23137;DHT22;11737;50.558;7.258;2022-10-16T11:58:03;21.30;99.90
23137;DHT22;11737;50.558;7.258;2022-10-16T12:00:31;21.20;99.90
23137;DHT22;11737;50.558;7.258;2022-10-16T12:03:18;21.10;99.90
23137;DHT22;11737;50.558;7.258;2022-10-16T12:06:06;21.10;99.90
23137;DHT22;11737;50.558;7.258;2022-10-16T12:08:34;21.10;99.90
23137;DHT22;11737;50.558;7.258;2022-10-16T12:11:23;21.20;99.90
23137;DHT22;11737;50.558;7.258;2022-10-16T12:13:51;21.30;99.90
23137;DHT22;11737;50.558;7.258;2022-10-16T12:16:22;21.50;99.90
23137;DHT22;11737;50.558;7.258;2022-10-16T12:19:03;21.60;99.90
23137;DHT22;11737;50.558;7.258;2022-10-16T12:21:23;21.70;99.90
23137;DHT22;11737;50.558;7.258;2022-10-16T12:23:56;21.80;99.90
23137;DHT22;11737;50.558;7.258;2022-10-16T12:26:40;22.00;99.90
23137;DHT22;11737;50.558;7.258;2022-10-16T12:29:20;22.00;99.90
23137;DHT22;11737;50.558;7.258;2022-10-16T12:32:04;22.20;99.90
23137;DHT22;11737;50.558;7.258;2022-10-16T12:34:42;22.40;99.90
23137;DHT22;11737;50.558;7.258;2022-10-16T12:37:13;22.50;99.90
23137;DHT22;11737;50.558;7.258;2022-10-16T12:39:41;22.60;99.90
23137;DHT22;11737;50.558;7.258;2022-10-16T12:44:52;22.70;99.90
23137;DHT22;11737;50.558;7.258;2022-10-16T12:50:00;22.90;99.90
23137;DHT22;11737;50.558;7.258;2022-10-16T12:52:36;23.10;99.90
23137;DHT22;11737;50.558;7.258;2022-10-16T12:55:05;23.30;99.90
23137;DHT22;11737;50.558;7.258;2022-10-16T13:00:43;23.20;99.90
23137;DHT22;11737;50.558;7.258;2022-10-16T13:06:34;23.00;99.90
23137;DHT22;11737;50.558;7.258;2022-10-16T13:09:26;22.90;99.90
23137;DHT22;11737;50.558;7.258;2022-10-16T13:12:33;22.90;99.90
23137;DHT22;11737;50.558;7.258;2022-10-16T13:15:00;23.00;99.90
23137;DHT22;11737;50.558;7.258;2022-10-16T13:23:06;23.20;99.90
23137;DHT22;11737;50.558;7.258;2022-10-16T13:28:09;23.40;99.90
23137;DHT22;11737;50.558;7.258;2022-10-16T13:30:43;23.40;99.90
23137;DHT22;11737;50.558;7.258;2022-10-16T13:33:38;23.50;99.90
23137;DHT22;11737;50.558;7.258;2022-10-16T13:36:06;23.60;99.90
23137;DHT22;11737;50.558;7.258;2022-10-16T13:38:36;23.60;99.90
23137;DHT22;11737;50.558;7.258;2022-10-16T13:41:12;23.60;99.90
23137;DHT22;11737;50.558;7.258;2022-10-16T13:43:40;23.50;99.90
23137;DHT22;11737;50.558;7.258;2022-10-16T13:46:22;23.40;99.90
23137;DHT22;11737;50.558;7.258;2022-10-16T13:48:58;23.20;99.90
23137;DHT22;11737;50.558;7.258;2022-10-16T13:51:26;23.20;99.90
23137;DHT22;11737;50.558;7.258;2022-10-16T13:53:56;23.20;99.90
23137;DHT22;11737;50.558;7.258;2022-10-16T13:56:29;23.10;99.90
23137;DHT22;11737;50.558;7.258;2022-10-16T13:59:06;23.00;99.90
23137;DHT22;11737;50.558;7.258;2022-10-16T14:01:42;22.90;99.90
23137;DHT22;11737;50.558;7.258;2022-10-16T14:04:12;22.80;99.90
23137;DHT22;11737;50.558;7.258;2022-10-16T14:06:42;22.70;99.90
23137;DHT22;11737;50.558;7.258;2022-10-16T14:09:22;22.60;99.90
23137;DHT22;11737;50.558;7.258;2022-10-16T14:11:53;22.60;99.90
23137;DHT22;11737;50.558;7.258;2022-10-16T14:14:21;22.50;99.90
23137;DHT22;11737;50.558;7.258;2022-10-16T14:16:49;22.40;99.90
23137;DHT22;11737;50.558;7.258;2022-10-16T14:19:22;22.30;99.90
23137;DHT22;11737;50.558;7.258;2022-10-16T14:21:51;22.20;99.90
23137;DHT22;11737;50.558;7.258;2022-10-16T14:24:27;22.10;99.90
23137;DHT22;11737;50.558;7.258;2022-10-16T14:26:55;22.00;99.90
23137;DHT22;11737;50.558;7.258;2022-10-16T14:29:24;22.00;99.90
23137;DHT22;11737;50.558;7.258;2022-10-16T14:32:00;21.90;99.90
23137;DHT22;11737;50.558;7.258;2022-10-16T14:34:53;21.90;99.90
23137;DHT22;11737;50.558;7.258;2022-10-16T14:37:22;21.80;99.90
23137;DHT22;11737;50.558;7.258;2022-10-16T14:39:52;21.80;99.90
23137;DHT22;11737;50.558;7.258;2022-10-16T14:42:22;21.70;99.90
23137;DHT22;11737;50.558;7.258;2022-10-16T14:44:52;21.70;99.90
23137;DHT22;11737;50.558;7.258;2022-10-16T14:47:22;21.70;99.90
23137;DHT22;11737;50.558;7.258;2022-10-16T14:49:53;21.60;99.90
23137;DHT22;11737;50.558;7.258;2022-10-16T14:52:22;21.60;99.90
23137;DHT22;11737;50.558;7.258;2022-10-16T14:54:51;21.60;99.90
23137;DHT22;11737;50.558;7.258;2022-10-16T14:57:26;21.60;99.90
23137;DHT22;11737;50.558;7.258;2022-10-16T14:59:53;21.50;99.90
23137;DHT22;11737;50.558;7.258;2022-10-16T15:02:27;21.50;99.90
23137;DHT22;11737;50.558;7.258;2022-10-16T15:04:51;21.40;99.90
23137;DHT22;11737;50.558;7.258;2022-10-16T15:07:19;21.30;99.90
23137;DHT22;11737;50.558;7.258;2022-10-16T15:09:46;21.30;99.90
23137;DHT22;11737;50.558;7.258;2022-10-16T15:12:14;21.20;99.90
23137;DHT22;11737;50.558;7.258;2022-10-16T15:14:41;21.10;99.90
23137;DHT22;11737;50.558;7.258;2022-10-16T15:17:11;21.10;99.90
23137;DHT22;11737;50.558;7.258;2022-10-16T15:19:38;21.00;99.90
23137;DHT22;11737;50.558;7.258;2022-10-16T15:22:06;20.90;99.90
23137;DHT22;11737;50.558;7.258;2022-10-16T15:24:33;20.90;99.90
23137;DHT22;11737;50.558;7.258;2022-10-16T15:27:01;20.80;99.90
23137;DHT22;11737;50.558;7.258;2022-10-16T15:29:28;20.70;99.90
23137;DHT22;11737;50.558;7.258;2022-10-16T15:31:56;20.60;99.90
23137;DHT22;11737;50.558;7.258;2022-10-16T15:34:23;20.60;99.90
23137;DHT22;11737;50.558;7.258;2022-10-16T15:36:51;20.50;99.90
23137;DHT22;11737;50.558;7.258;2022-10-16T15:39:20;20.40;99.90
23137;DHT22;11737;50.558;7.258;2022-10-16T15:41:48;20.40;99.90
23137;DHT22;11737;50.558;7.258;2022-10-16T15:44:20;20.30;99.90
23137;DHT22;11737;50.558;7.258;2022-10-16T15:46:49;20.20;99.90
23137;DHT22;11737;50.558;7.258;2022-10-16T15:49:17;20.10;99.90
23137;DHT22;11737;50.558;7.258;2022-10-16T15:51:45;20.10;99.90
23137;DHT22;11737;50.558;7.258;2022-10-16T15:54:13;20.00;99.90
23137;DHT22;11737;50.558;7.258;2022-10-16T15:56:40;20.00;99.90
23137;DHT22;11737;50.558;7.258;2022-10-16T15:59:08;20.00;99.90
23137;DHT22;11737;50.558;7.258;2022-10-16T16:01:35;19.90;99.90
23137;DHT22;11737;50.558;7.258;2022-10-16T16:04:03;19.90;99.90
23137;DHT22;11737;50.558;7.258;2022-10-16T16:06:31;19.80;99.90
23137;DHT22;11737;50.558;7.258;2022-10-16T16:08:59;19.80;99.90
23137;DHT22;11737;50.558;7.258;2022-10-16T16:11:26;19.70;99.90
23137;DHT22;11737;50.558;7.258;2022-10-16T16:13:54;19.70;99.90
23137;DHT22;11737;50.558;7.258;2022-10-16T16:16:21;19.70;99.90
23137;DHT22;11737;50.558;7.258;2022-10-16T16:18:52;19.60;99.90
23137;DHT22;11737;50.558;7.258;2022-10-16T16:21:20;19.60;99.90
23137;DHT22;11737;50.558;7.258;2022-10-16T16:23:47;19.50;99.90
23137;DHT22;11737;50.558;7.258;2022-10-16T16:26:26;19.50;99.90
23137;DHT22;11737;50.558;7.258;2022-10-16T16:28:54;19.40;99.90
23137;DHT22;11737;50.558;7.258;2022-10-16T16:31:27;19.40;99.90
23137;DHT22;11737;50.558;7.258;2022-10-16T16:33:55;19.40;99.90
23137;DHT22;11737;50.558;7.258;2022-10-16T16:36:25;19.30;99.90
23137;DHT22;11737;50.558;7.258;2022-10-16T16:38:53;19.20;99.90
23137;DHT22;11737;50.558;7.258;2022-10-16T16:41:23;19.30;99.90
23137;DHT22;11737;50.558;7.258;2022-10-16T16:43:53;19.20;99.90
23137;DHT22;11737;50.558;7.258;2022-10-16T16:46:21;19.20;99.90
23137;DHT22;11737;50.558;7.258;2022-10-16T16:51:37;19.10;99.90
23137;DHT22;11737;50.558;7.258;2022-10-16T16:54:06;19.10;99.90
23137;DHT22;11737;50.558;7.258;2022-10-16T16:56:34;19.00;99.90
23137;DHT22;11737;50.558;7.258;2022-10-16T16:59:02;19.00;99.90
23137;DHT22;11737;50.558;7.258;2022-10-16T17:01:30;19.00;99.90
23137;DHT22;11737;50.558;7.258;2022-10-16T17:03:58;18.90;99.90
23137;DHT22;11737;50.558;7.258;2022-10-16T17:06:27;18.90;99.90
23137;DHT22;11737;50.558;7.258;2022-10-16T17:08:57;18.80;99.90
23137;DHT22;11737;50.558;7.258;2022-10-16T17:11:26;18.70;99.90
23137;DHT22;11737;50.558;7.258;2022-10-16T17:13:56;18.70;99.90
23137;DHT22;11737;50.558;7.258;2022-10-16T17:16:31;18.60;99.90
23137;DHT22;11737;50.558;7.258;2022-10-16T17:18:54;18.60;99.90
23137;DHT22;11737;50.558;7.258;2022-10-16T17:21:22;18.60;99.90
23137;DHT22;11737;50.558;7.258;2022-10-16T17:23:52;18.60;99.90
23137;DHT22;11737;50.558;7.258;2022-10-16T17:26:19;18.60;99.90
23137;DHT22;11737;50.558;7.258;2022-10-16T17:28:51;18.60;99.90
23137;DHT22;11737;50.558;7.258;2022-10-16T17:31:25;18.60;99.90